Time,TemperatureF,DewpointF,PressureIn,WindDirection,WindDirectionDegrees,WindSpeedMPH,WindSpeedGustMPH,Humidity,HourlyPrecipIn,Conditions,Clouds,dailyrainin,SoftwareType,DateUTC
2013-01-20 00:05:00,42.0,32.6,28.92,SSE,157,6.0,16.0,69,0.00,,,0.00,Weather View 32 v70,2013-01-20 05:05:00,
2013-01-20 00:10:00,42.0,32.6,28.91,SE,135,10.0,16.0,69,0.00,,,0.00,Weather View 32 v70,2013-01-20 05:10:00,
2013-01-20 00:15:00,42.0,32.2,28.91,SE,135,13.0,16.0,68,0.00,,,0.00,Weather View 32 v70,2013-01-20 05:15:00,
2013-01-20 00:20:00,42.0,32.6,28.91,SE,135,13.0,17.0,69,0.00,,,0.00,Weather View 32 v70,2013-01-20 05:20:00,
2013-01-20 00:25:00,41.0,32.3,28.90,SSE,157,6.0,17.0,71,0.00,,,0.00,Weather View 32 v70,2013-01-20 05:25:00,
2013-01-20 00:35:00,42.0,30.7,28.90,SSW,202,13.0,22.0,64,0.00,,,0.00,Weather View 32 v70,2013-01-20 05:35:00,
2013-01-20 00:40:00,43.0,30.9,28.90,SSE,157,3.0,28.0,62,0.00,,,0.00,Weather View 32 v70,2013-01-20 05:40:00,
2013-01-20 00:50:00,44.0,28.8,28.88,SSW,202,0.0,28.0,55,0.00,,,0.00,Weather View 32 v70,2013-01-20 05:50:00,
2013-01-20 00:55:00,44.0,28.8,28.88,South,180,3.0,29.0,55,0.00,,,0.00,Weather View 32 v70,2013-01-20 05:55:00,
2013-01-20 01:01:00,44.0,28.4,28.88,SW,225,12.0,29.0,54,0.00,,,0.00,Weather View 32 v70,2013-01-20 06:01:00,
2013-01-20 01:10:00,44.0,28.4,28.88,SSE,157,9.0,29.0,54,0.00,,,0.00,Weather View 32 v70,2013-01-20 06:10:00,
2013-01-20 01:20:00,44.0,28.4,28.88,South,180,4.0,29.0,54,0.00,,,0.00,Weather View 32 v70,2013-01-20 06:20:00,
2013-01-20 01:25:00,44.0,27.9,28.88,SW,225,4.0,29.0,53,0.00,,,0.00,Weather View 32 v70,2013-01-20 06:25:00,
2013-01-20 01:30:00,44.0,28.8,28.88,West,270,2.0,29.0,55,0.00,,,0.00,Weather View 32 v70,2013-01-20 06:30:00,
2013-01-20 01:40:00,44.0,28.8,28.88,SSE,157,13.0,29.0,55,0.00,,,0.00,Weather View 32 v70,2013-01-20 06:40:00,
2013-01-20 01:50:00,45.0,24.9,28.87,SSW,202,6.0,29.0,45,0.00,,,0.00,Weather View 32 v70,2013-01-20 06:50:00,
2013-01-20 01:55:00,45.0,23.8,28.87,SW,225,12.0,23.0,43,0.00,,,0.00,Weather View 32 v70,2013-01-20 06:55:00,
2013-01-20 02:00:00,45.0,27.9,28.86,SSE,157,1.0,23.0,51,0.00,,,0.00,Weather View 32 v70,2013-01-20 07:00:00,
2013-01-20 02:10:00,45.0,25.4,28.86,SSE,157,6.0,20.0,46,0.00,,,0.00,Weather View 32 v70,2013-01-20 07:10:00,
2013-01-20 02:20:00,44.0,26.5,28.86,SSW,202,6.0,20.0,50,0.00,,,0.00,Weather View 32 v70,2013-01-20 07:20:00,
2013-01-20 02:25:00,44.0,25.5,28.87,SE,135,9.0,20.0,48,0.00,,,0.00,Weather View 32 v70,2013-01-20 07:25:00,
2013-01-20 02:30:00,44.0,24.5,28.87,SSE,157,6.0,20.0,46,0.00,,,0.00,Weather View 32 v70,2013-01-20 07:30:00,
2013-01-20 02:40:00,44.0,27.0,28.86,SSE,157,4.0,20.0,51,0.00,,,0.00,Weather View 32 v70,2013-01-20 07:40:00,
2013-01-20 02:45:00,43.0,27.0,28.86,SSE,157,5.0,19.0,53,0.00,,,0.00,Weather View 32 v70,2013-01-20 07:45:00,
2013-01-20 02:55:00,43.0,27.0,28.86,South,180,4.0,16.0,53,0.00,,,0.00,Weather View 32 v70,2013-01-20 07:55:00,
2013-01-20 03:00:00,43.0,27.9,28.86,SSE,157,4.0,16.0,55,0.00,,,0.00,Weather View 32 v70,2013-01-20 08:00:00,
2013-01-20 03:10:00,43.0,28.8,28.86,SSE,157,6.0,16.0,57,0.00,,,0.00,Weather View 32 v70,2013-01-20 08:10:00,
2013-01-20 03:15:00,42.0,27.9,28.86,SSE,157,10.0,16.0,57,0.00,,,0.00,Weather View 32 v70,2013-01-20 08:15:00,
2013-01-20 03:25:00,42.0,27.4,28.86,SSE,157,9.0,16.0,56,0.00,,,0.00,Weather View 32 v70,2013-01-20 08:25:00,
2013-01-20 03:30:00,42.0,28.7,28.86,South,180,8.0,16.0,59,0.00,,,0.00,Weather View 32 v70,2013-01-20 08:30:00,
2013-01-20 03:40:00,42.0,28.3,28.85,SSE,157,6.0,16.0,58,0.00,,,0.00,Weather View 32 v70,2013-01-20 08:40:00,
2013-01-20 03:45:00,42.0,27.0,28.85,SSE,157,6.0,16.0,55,0.00,,,0.00,Weather View 32 v70,2013-01-20 08:45:00,
2013-01-20 03:55:00,43.0,27.5,28.83,South,180,6.0,18.0,54,0.00,,,0.00,Weather View 32 v70,2013-01-20 08:55:00,
2013-01-20 04:00:00,45.0,27.9,28.83,South,180,4.0,18.0,51,0.00,,,0.00,Weather View 32 v70,2013-01-20 09:00:00,
2013-01-20 04:10:00,45.0,27.0,28.81,SE,135,6.0,19.0,49,0.00,,,0.00,Weather View 32 v70,2013-01-20 09:10:00,
2013-01-20 04:15:00,43.0,27.9,28.82,SE,135,1.0,19.0,55,0.00,,,0.00,Weather View 32 v70,2013-01-20 09:15:00,
2013-01-20 04:25:00,45.0,27.5,28.81,WSW,247,5.0,19.0,50,0.00,,,0.00,Weather View 32 v70,2013-01-20 09:25:00,
2013-01-20 04:30:00,45.0,27.5,28.81,WSW,247,7.0,19.0,50,0.00,,,0.00,Weather View 32 v70,2013-01-20 09:30:00,
2013-01-20 04:40:00,46.0,27.9,28.80,West,270,11.0,19.0,49,0.00,,,0.00,Weather View 32 v70,2013-01-20 09:40:00,
2013-01-20 04:45:00,46.0,27.9,28.80,West,270,12.0,21.0,49,0.00,,,0.00,Weather View 32 v70,2013-01-20 09:45:00,
2013-01-20 04:55:00,47.0,28.8,28.79,West,270,9.0,21.0,49,0.00,,,0.00,Weather View 32 v70,2013-01-20 09:55:00,
2013-01-20 05:00:00,47.0,28.8,28.79,West,270,3.0,21.0,49,0.00,,,0.00,Weather View 32 v70,2013-01-20 10:00:00,
2013-01-20 05:10:00,47.0,28.8,28.79,West,270,20.0,22.0,49,0.00,,,0.00,Weather View 32 v70,2013-01-20 10:10:00,
2013-01-20 05:20:00,47.0,29.8,28.78,WSW,247,12.0,28.0,51,0.00,,,0.00,Weather View 32 v70,2013-01-20 10:20:00,
2013-01-20 05:25:00,47.0,29.8,28.78,West,270,8.0,28.0,51,0.00,,,0.00,Weather View 32 v70,2013-01-20 10:25:00,
2013-01-20 05:35:00,48.0,31.2,28.77,West,270,6.0,29.0,52,0.00,,,0.00,Weather View 32 v70,2013-01-20 10:35:00,
2013-01-20 05:40:00,48.0,31.2,28.76,West,270,6.0,29.0,52,0.00,,,0.00,Weather View 32 v70,2013-01-20 10:40:00,
2013-01-20 05:50:00,48.0,31.7,28.75,West,270,12.0,29.0,53,0.00,,,0.00,Weather View 32 v70,2013-01-20 10:50:00,
2013-01-20 06:00:00,49.0,31.1,28.76,SSW,202,26.0,34.0,50,0.00,,,0.00,Weather View 32 v70,2013-01-20 11:00:00,
2013-01-20 06:05:00,48.0,30.7,28.77,West,270,9.0,34.0,51,0.00,,,0.00,Weather View 32 v70,2013-01-20 11:05:00,
2013-01-20 06:15:00,48.0,31.2,28.76,SSW,202,1.0,34.0,52,0.00,,,0.00,Weather View 32 v70,2013-01-20 11:15:00,
2013-01-20 06:20:00,48.0,31.2,28.76,West,270,8.0,34.0,52,0.00,,,0.00,Weather View 32 v70,2013-01-20 11:20:00,
2013-01-20 06:30:00,48.0,31.7,28.76,West,270,14.0,34.0,53,0.00,,,0.00,Weather View 32 v70,2013-01-20 11:30:00,
2013-01-20 06:35:00,48.0,31.7,28.76,West,270,6.0,34.0,53,0.00,,,0.00,Weather View 32 v70,2013-01-20 11:35:00,
2013-01-20 06:45:00,48.0,31.7,28.77,WNW,292,9.0,34.0,53,0.00,,,0.00,Weather View 32 v70,2013-01-20 11:45:00,
2013-01-20 06:55:00,47.0,31.2,28.77,SSW,202,6.0,34.0,54,0.00,,,0.00,Weather View 32 v70,2013-01-20 11:55:00,
2013-01-20 07:00:00,47.0,31.2,28.77,West,270,13.0,31.0,54,0.00,,,0.00,Weather View 32 v70,2013-01-20 12:00:00,
2013-01-20 07:10:00,47.0,31.6,28.77,West,270,12.0,31.0,55,0.00,,,0.00,Weather View 32 v70,2013-01-20 12:10:00,
2013-01-20 07:15:00,47.0,31.6,28.76,West,270,16.0,31.0,55,0.00,,,0.00,Weather View 32 v70,2013-01-20 12:15:00,
2013-01-20 07:25:00,47.0,32.1,28.77,WSW,247,16.0,31.0,56,0.00,,,0.00,Weather View 32 v70,2013-01-20 12:25:00,
2013-01-20 07:30:00,47.0,32.5,28.77,West,270,13.0,32.0,57,0.00,,,0.00,Weather View 32 v70,2013-01-20 12:30:00,
2013-01-20 07:40:00,47.0,32.5,28.78,West,270,13.0,32.0,57,0.00,,,0.00,Weather View 32 v70,2013-01-20 12:40:00,
2013-01-20 07:50:00,48.0,33.0,28.77,WNW,292,12.0,37.0,56,0.00,,,0.00,Weather View 32 v70,2013-01-20 12:50:00,
2013-01-20 07:55:00,47.0,33.0,28.77,WSW,247,15.0,37.0,58,0.00,,,0.00,Weather View 32 v70,2013-01-20 12:55:00,
2013-01-20 08:05:00,47.0,33.0,28.79,West,270,9.0,37.0,58,0.00,,,0.00,Weather View 32 v70,2013-01-20 13:05:00,
2013-01-20 08:10:00,47.0,33.4,28.79,SW,225,25.0,37.0,59,0.00,,,0.00,Weather View 32 v70,2013-01-20 13:10:00,
2013-01-20 08:20:00,47.0,33.0,28.79,WSW,247,13.0,37.0,58,0.00,,,0.00,Weather View 32 v70,2013-01-20 13:20:00,
2013-01-20 08:25:00,47.0,33.0,28.79,West,270,23.0,37.0,58,0.00,,,0.00,Weather View 32 v70,2013-01-20 13:25:00,
2013-01-20 08:35:00,47.0,33.4,28.79,West,270,12.0,38.0,59,0.00,,,0.00,Weather View 32 v70,2013-01-20 13:35:00,
2013-01-20 08:45:00,47.0,34.2,28.79,WNW,292,16.0,38.0,61,0.00,,,0.00,Weather View 32 v70,2013-01-20 13:45:00,
2013-01-20 08:50:00,47.0,34.6,28.80,West,270,11.0,38.0,62,0.00,,,0.00,Weather View 32 v70,2013-01-20 13:50:00,
2013-01-20 09:00:00,47.0,34.6,28.80,NW,315,15.0,38.0,62,0.00,,,0.00,Weather View 32 v70,2013-01-20 14:00:00,
2013-01-20 09:05:00,47.0,34.2,28.80,West,270,24.0,38.0,61,0.00,,,0.00,Weather View 32 v70,2013-01-20 14:05:00,
2013-01-20 09:15:00,47.0,34.6,28.80,West,270,20.0,38.0,62,0.00,,,0.00,Weather View 32 v70,2013-01-20 14:15:00,
2013-01-20 09:20:00,47.0,34.6,28.80,WSW,247,19.0,38.0,62,0.00,,,0.00,Weather View 32 v70,2013-01-20 14:20:00,
2013-01-20 09:30:00,47.0,34.6,28.80,WNW,292,14.0,38.0,62,0.00,,,0.00,Weather View 32 v70,2013-01-20 14:30:00,
2013-01-20 09:40:00,47.0,34.6,28.80,West,270,6.0,38.0,62,0.00,,,0.00,Weather View 32 v70,2013-01-20 14:40:00,
2013-01-20 09:45:00,47.0,34.6,28.80,WSW,247,9.0,38.0,62,0.00,,,0.00,Weather View 32 v70,2013-01-20 14:45:00,
2013-01-20 09:55:00,48.0,35.2,28.80,NW,315,9.0,40.0,61,0.00,,,0.00,Weather View 32 v70,2013-01-20 14:55:00,
2013-01-20 10:05:00,48.0,35.2,28.81,West,270,12.0,40.0,61,0.00,,,0.00,Weather View 32 v70,2013-01-20 15:05:00,
2013-01-20 10:10:00,48.0,33.9,28.80,West,270,7.0,40.0,58,0.00,,,0.00,Weather View 32 v70,2013-01-20 15:10:00,
2013-01-20 10:20:00,49.0,34.0,28.80,West,270,7.0,40.0,56,0.00,,,0.00,Weather View 32 v70,2013-01-20 15:20:00,
2013-01-20 10:25:00,49.0,34.8,28.81,West,270,16.0,40.0,58,0.00,,,0.00,Weather View 32 v70,2013-01-20 15:25:00,
2013-01-20 10:30:00,49.0,34.8,28.81,NW,315,9.0,40.0,58,0.00,,,0.00,Weather View 32 v70,2013-01-20 15:30:00,
2013-01-20 10:35:00,49.0,33.0,28.81,WNW,292,16.0,40.0,54,0.00,,,0.00,Weather View 32 v70,2013-01-20 15:35:00,
2013-01-20 10:40:00,49.0,33.0,28.80,NW,315,11.0,40.0,54,0.00,,,0.00,Weather View 32 v70,2013-01-20 15:40:00,
2013-01-20 10:50:00,49.0,30.6,28.81,West,270,20.0,40.0,49,0.00,,,0.00,Weather View 32 v70,2013-01-20 15:50:00,
2013-01-20 11:00:00,49.0,31.6,28.80,NW,315,10.0,48.0,51,0.00,,,0.00,Weather View 32 v70,2013-01-20 16:00:00,
2013-01-20 11:05:00,49.0,31.1,28.80,WNW,292,13.0,48.0,50,0.00,,,0.00,Weather View 32 v70,2013-01-20 16:05:00,
2013-01-20 11:15:00,49.0,31.1,28.81,WNW,292,16.0,48.0,50,0.00,,,0.00,Weather View 32 v70,2013-01-20 16:15:00,
2013-01-20 11:20:00,49.0,30.1,28.81,WSW,247,16.0,48.0,48,0.00,,,0.00,Weather View 32 v70,2013-01-20 16:20:00,
2013-01-20 11:30:00,49.0,30.6,28.81,West,270,13.0,48.0,49,0.00,,,0.00,Weather View 32 v70,2013-01-20 16:30:00,
2013-01-20 11:35:00,49.0,30.6,28.81,West,270,19.0,48.0,49,0.00,,,0.00,Weather View 32 v70,2013-01-20 16:35:00,
2013-01-20 11:45:00,50.0,30.0,28.80,West,270,0.0,48.0,46,0.00,,,0.00,Weather View 32 v70,2013-01-20 16:45:00,
2013-01-20 11:55:00,50.0,28.9,28.79,West,270,16.0,46.0,44,0.00,,,0.00,Weather View 32 v70,2013-01-20 16:55:00,
2013-01-20 12:00:00,50.0,30.0,28.79,NW,315,10.0,46.0,46,0.00,,,0.00,Weather View 32 v70,2013-01-20 17:00:00,
2013-01-20 12:07:00,49.0,29.6,28.80,West,270,3.0,46.0,47,0.00,,,0.00,Weather View 32 v70,2013-01-20 17:07:00,
2013-01-20 12:15:00,50.0,27.2,28.79,West,270,23.0,46.0,41,0.00,,,0.00,Weather View 32 v70,2013-01-20 17:15:00,
2013-01-20 12:25:00,49.0,25.1,28.79,West,270,7.0,37.0,39,0.00,,,0.00,Weather View 32 v70,2013-01-20 17:25:00,
2013-01-20 12:35:00,49.0,26.3,28.80,NW,315,13.0,37.0,41,0.00,,,0.00,Weather View 32 v70,2013-01-20 17:35:00,
2013-01-20 12:40:00,49.0,26.3,28.79,WNW,292,15.0,37.0,41,0.00,,,0.00,Weather View 32 v70,2013-01-20 17:40:00,
2013-01-20 12:50:00,49.0,26.3,28.79,West,270,12.0,37.0,41,0.00,,,0.00,Weather View 32 v70,2013-01-20 17:50:00,
2013-01-20 12:55:00,49.0,22.5,28.80,West,270,21.0,37.0,35,0.00,,,0.00,Weather View 32 v70,2013-01-20 17:55:00,
2013-01-20 13:05:00,49.0,21.8,28.80,WNW,292,13.0,37.0,34,0.00,,,0.00,Weather View 32 v70,2013-01-20 18:05:00,
2013-01-20 13:10:00,50.0,21.2,28.80,WSW,247,10.0,37.0,32,0.00,,,0.00,Weather View 32 v70,2013-01-20 18:10:00,
2013-01-20 13:20:00,49.0,18.1,28.81,WNW,292,15.0,36.0,29,0.00,,,0.00,Weather View 32 v70,2013-01-20 18:20:00,
2013-01-20 13:30:00,49.0,18.9,28.80,West,270,22.0,40.0,30,0.00,,,0.00,Weather View 32 v70,2013-01-20 18:30:00,
2013-01-20 13:35:00,49.0,21.1,28.81,NW,315,9.0,40.0,33,0.00,,,0.00,Weather View 32 v70,2013-01-20 18:35:00,
2013-01-20 13:50:00,49.0,21.1,28.83,WNW,292,7.0,40.0,33,0.00,,,0.00,Weather View 32 v70,2013-01-20 18:50:00,
2013-01-20 13:55:00,49.0,21.1,28.83,NW,315,20.0,40.0,33,0.00,,,0.00,Weather View 32 v70,2013-01-20 18:55:00,
2013-01-20 14:00:00,48.0,20.2,28.83,NW,315,17.0,40.0,33,0.00,,,0.00,Weather View 32 v70,2013-01-20 19:00:00,
2013-01-20 14:08:00,47.0,19.3,28.85,NW,315,26.0,40.0,33,0.00,,,0.00,Weather View 32 v70,2013-01-20 19:08:00,
2013-01-20 14:15:00,47.0,19.3,28.85,NW,315,29.0,40.0,33,0.00,,,0.00,Weather View 32 v70,2013-01-20 19:15:00,
2013-01-20 14:25:00,47.0,18.6,28.87,NW,315,18.0,40.0,32,0.00,,,0.00,Weather View 32 v70,2013-01-20 19:25:00,
2013-01-20 14:35:00,46.0,18.5,28.86,West,270,17.0,40.0,33,0.00,,,0.00,Weather View 32 v70,2013-01-20 19:35:00,
2013-01-20 14:40:00,46.0,18.5,28.87,WNW,292,10.0,40.0,33,0.00,,,0.00,Weather View 32 v70,2013-01-20 19:40:00,
2013-01-20 14:50:00,46.0,20.5,28.88,WSW,247,13.0,40.0,36,0.00,,,0.00,Weather View 32 v70,2013-01-20 19:50:00,
2013-01-20 14:55:00,45.0,18.3,28.88,NW,315,24.0,40.0,34,0.00,,,0.00,Weather View 32 v70,2013-01-20 19:55:00,
2013-01-20 15:05:00,45.0,19.6,28.88,NW,315,22.0,40.0,36,0.00,,,0.00,Weather View 32 v70,2013-01-20 20:05:00,
2013-01-20 15:10:00,45.0,19.0,28.88,WNW,292,25.0,40.0,35,0.00,,,0.00,Weather View 32 v70,2013-01-20 20:10:00,
2013-01-20 15:20:00,44.0,19.4,28.91,WNW,292,15.0,40.0,37,0.00,,,0.00,Weather View 32 v70,2013-01-20 20:20:00,
2013-01-20 15:25:00,44.0,19.4,28.93,NW,315,30.0,40.0,37,0.00,,,0.00,Weather View 32 v70,2013-01-20 20:25:00,
2013-01-20 15:35:00,44.0,20.0,28.91,NW,315,32.0,43.0,38,0.00,,,0.00,Weather View 32 v70,2013-01-20 20:35:00,
2013-01-20 15:45:00,43.0,17.2,28.92,NW,315,15.0,43.0,35,0.00,,,0.00,Weather View 32 v70,2013-01-20 20:45:00,
2013-01-20 15:50:00,43.0,17.8,28.93,NW,315,19.0,43.0,36,0.00,,,0.00,Weather View 32 v70,2013-01-20 20:50:00,
2013-01-20 15:55:00,43.0,17.2,28.94,NW,315,19.0,43.0,35,0.00,,,0.00,Weather View 32 v70,2013-01-20 20:55:00,
2013-01-20 16:05:00,43.0,17.2,28.94,NW,315,13.0,43.0,35,0.00,,,0.00,Weather View 32 v70,2013-01-20 21:05:00,
2013-01-20 16:15:00,42.0,16.9,28.96,NW,315,17.0,43.0,36,0.00,,,0.00,Weather View 32 v70,2013-01-20 21:15:00,
2013-01-20 16:20:00,42.0,15.6,28.96,NW,315,14.0,43.0,34,0.00,,,0.00,Weather View 32 v70,2013-01-20 21:20:00,
2013-01-20 16:30:00,42.0,15.6,28.97,NW,315,19.0,43.0,34,0.00,,,0.00,Weather View 32 v70,2013-01-20 21:30:00,
2013-01-20 16:35:00,42.0,15.6,28.97,NW,315,12.0,43.0,34,0.00,,,0.00,Weather View 32 v70,2013-01-20 21:35:00,
2013-01-20 16:45:00,41.0,16.7,28.98,NW,315,22.0,41.0,37,0.00,,,0.00,Weather View 32 v70,2013-01-20 21:45:00,
2013-01-20 16:50:00,41.0,16.7,28.98,WNW,292,6.0,41.0,37,0.00,,,0.00,Weather View 32 v70,2013-01-20 21:50:00,
2013-01-20 17:00:00,40.0,15.8,28.98,West,270,12.0,37.0,37,0.00,,,0.00,Weather View 32 v70,2013-01-20 22:00:00,
2013-01-20 17:09:00,40.0,17.0,28.99,NW,315,9.0,37.0,39,0.00,,,0.00,Weather View 32 v70,2013-01-20 22:09:00,
2013-01-20 17:15:00,39.0,16.1,28.98,NW,315,19.0,33.0,39,0.00,,,0.00,Weather View 32 v70,2013-01-20 22:15:00,
2013-01-20 17:25:00,39.0,16.1,29.00,WNW,292,15.0,31.0,39,0.00,,,0.00,Weather View 32 v70,2013-01-20 22:25:00,
2013-01-20 17:30:00,39.0,16.7,29.00,WNW,292,13.0,31.0,40,0.00,,,0.00,Weather View 32 v70,2013-01-20 22:30:00,
2013-01-20 17:40:00,38.0,15.8,29.01,West,270,7.0,31.0,40,0.00,,,0.00,Weather View 32 v70,2013-01-20 22:40:00,
2013-01-20 17:45:00,38.0,16.9,29.02,WNW,292,9.0,31.0,42,0.00,,,0.00,Weather View 32 v70,2013-01-20 22:45:00,
2013-01-20 17:55:00,38.0,17.5,29.02,NW,315,29.0,31.0,43,0.00,,,0.00,Weather View 32 v70,2013-01-20 22:55:00,
2013-01-20 18:05:00,37.0,15.5,29.03,WNW,292,12.0,36.0,41,0.00,,,0.00,Weather View 32 v70,2013-01-20 23:05:00,
2013-01-20 18:10:00,37.0,16.6,29.03,WNW,292,12.0,36.0,43,0.00,,,0.00,Weather View 32 v70,2013-01-20 23:10:00,
2013-01-20 18:20:00,37.0,16.6,29.04,WNW,292,17.0,36.0,43,0.00,,,0.00,Weather View 32 v70,2013-01-20 23:20:00,
2013-01-20 18:25:00,36.0,17.2,29.04,WNW,292,8.0,36.0,46,0.00,,,0.00,Weather View 32 v70,2013-01-20 23:25:00,
2013-01-20 18:35:00,36.0,16.7,29.05,NW,315,12.0,36.0,45,0.00,,,0.00,Weather View 32 v70,2013-01-20 23:35:00,
2013-01-20 18:40:00,36.0,16.7,29.05,West,270,8.0,36.0,45,0.00,,,0.00,Weather View 32 v70,2013-01-20 23:40:00,
2013-01-20 18:50:00,36.0,16.7,29.06,NW,315,13.0,36.0,45,0.00,,,0.00,Weather View 32 v70,2013-01-20 23:50:00,
2013-01-20 19:00:00,36.0,17.7,29.06,NW,315,18.0,29.0,47,0.00,,,0.00,Weather View 32 v70,2013-01-21 00:00:00,
2013-01-20 19:05:00,36.0,17.7,29.06,WNW,292,8.0,26.0,47,0.00,,,0.00,Weather View 32 v70,2013-01-21 00:05:00,
2013-01-20 19:11:00,36.0,17.2,29.07,WNW,292,10.0,26.0,46,0.00,,,0.00,Weather View 32 v70,2013-01-21 00:11:00,
2013-01-20 19:20:00,35.0,17.8,29.07,West,270,15.0,28.0,49,0.00,,,0.00,Weather View 32 v70,2013-01-21 00:20:00,
2013-01-20 19:30:00,35.0,17.8,29.09,NW,315,16.0,28.0,49,0.00,,,0.00,Weather View 32 v70,2013-01-21 00:30:00,
2013-01-20 19:40:00,35.0,18.7,29.09,West,270,7.0,28.0,51,0.00,,,0.00,Weather View 32 v70,2013-01-21 00:40:00,
2013-01-20 19:45:00,35.0,17.8,29.08,West,270,9.0,28.0,49,0.00,,,0.00,Weather View 32 v70,2013-01-21 00:45:00,
2013-01-20 19:55:00,34.0,17.3,29.09,NW,315,7.0,28.0,50,0.00,,,0.00,Weather View 32 v70,2013-01-21 00:55:00,
2013-01-20 20:00:00,34.0,18.2,29.09,West,270,25.0,28.0,52,0.00,,,0.00,Weather View 32 v70,2013-01-21 01:00:00,
2013-01-20 20:10:00,34.0,18.2,29.09,WNW,292,13.0,28.0,52,0.00,,,0.00,Weather View 32 v70,2013-01-21 01:10:00,
2013-01-20 20:20:00,34.0,19.1,29.09,WNW,292,9.0,28.0,54,0.00,,,0.00,Weather View 32 v70,2013-01-21 01:20:00,
2013-01-20 20:25:00,34.0,19.1,29.09,NW,315,6.0,25.0,54,0.00,,,0.00,Weather View 32 v70,2013-01-21 01:25:00,
2013-01-20 20:35:00,33.0,19.0,29.09,NW,315,8.0,25.0,56,0.00,,,0.00,Weather View 32 v70,2013-01-21 01:35:00,
2013-01-20 20:40:00,33.0,19.8,29.10,West,270,10.0,25.0,58,0.00,,,0.00,Weather View 32 v70,2013-01-21 01:40:00,
2013-01-20 20:45:00,33.0,19.4,29.10,NW,315,16.0,25.0,57,0.00,,,0.00,Weather View 32 v70,2013-01-21 01:45:00,
2013-01-20 20:50:00,33.0,20.2,29.10,WNW,292,7.0,25.0,59,0.00,,,0.00,Weather View 32 v70,2013-01-21 01:50:00,
2013-01-20 20:55:00,33.0,19.8,29.10,NW,315,9.0,25.0,58,0.00,,,0.00,Weather View 32 v70,2013-01-21 01:55:00,
2013-01-20 21:00:00,33.0,19.8,29.10,NW,315,12.0,25.0,58,0.00,,,0.00,Weather View 32 v70,2013-01-21 02:00:00,
2013-01-20 21:10:00,32.0,19.7,29.10,WNW,292,9.0,21.0,60,0.00,,,0.00,Weather View 32 v70,2013-01-21 02:10:00,
2013-01-20 21:15:00,32.0,20.1,29.11,WNW,292,8.0,21.0,61,0.00,,,0.00,Weather View 32 v70,2013-01-21 02:15:00,
2013-01-20 21:25:00,32.0,21.2,29.12,WNW,292,7.0,21.0,64,0.00,,,0.00,Weather View 32 v70,2013-01-21 02:25:00,
2013-01-20 21:35:00,32.0,20.4,29.12,WNW,292,13.0,21.0,62,0.00,,,0.00,Weather View 32 v70,2013-01-21 02:35:00,
2013-01-20 21:40:00,32.0,20.1,29.11,NW,315,18.0,21.0,61,0.00,,,0.00,Weather View 32 v70,2013-01-21 02:40:00,
2013-01-20 21:50:00,32.0,20.8,29.12,NW,315,10.0,20.0,63,0.00,,,0.00,Weather View 32 v70,2013-01-21 02:50:00,
2013-01-20 21:55:00,31.0,20.2,29.12,NW,315,9.0,20.0,64,0.00,,,0.00,Weather View 32 v70,2013-01-21 02:55:00,
2013-01-20 22:00:00,31.0,19.5,29.12,WNW,292,11.0,20.0,62,0.00,,,0.00,Weather View 32 v70,2013-01-21 03:00:00,
2013-01-20 22:05:00,31.0,20.2,29.12,WNW,292,12.0,20.0,64,0.00,,,0.00,Weather View 32 v70,2013-01-21 03:05:00,
2013-01-20 22:12:00,31.0,19.9,29.12,WNW,292,7.0,20.0,63,0.00,,,0.00,Weather View 32 v70,2013-01-21 03:12:00,
2013-01-20 22:20:00,31.0,20.2,29.12,NW,315,11.0,20.0,64,0.00,,,0.00,Weather View 32 v70,2013-01-21 03:20:00,
2013-01-20 22:30:00,31.0,21.0,29.13,NW,315,9.0,20.0,66,0.00,,,0.00,Weather View 32 v70,2013-01-21 03:30:00,
2013-01-20 22:35:00,31.0,21.7,29.13,NW,315,16.0,20.0,68,0.00,,,0.00,Weather View 32 v70,2013-01-21 03:35:00,
2013-01-20 22:45:00,30.0,24.6,29.13,NW,315,12.0,20.0,80,0.00,,,0.00,Weather View 32 v70,2013-01-21 03:45:00,
2013-01-20 22:50:00,30.0,23.4,29.13,WNW,292,9.0,20.0,76,0.00,,,0.00,Weather View 32 v70,2013-01-21 03:50:00,
2013-01-20 23:00:00,30.0,22.7,29.12,WNW,292,16.0,25.0,74,0.00,,,0.00,Weather View 32 v70,2013-01-21 04:00:00,
2013-01-20 23:05:00,30.0,21.7,29.12,WNW,292,15.0,25.0,71,0.00,,,0.00,Weather View 32 v70,2013-01-21 04:05:00,
2013-01-20 23:10:00,30.0,24.0,29.13,NW,315,16.0,25.0,78,0.00,,,0.00,Weather View 32 v70,2013-01-21 04:10:00,
2013-01-20 23:20:00,30.0,23.0,29.13,NW,315,16.0,26.0,75,0.00,,,0.00,Weather View 32 v70,2013-01-21 04:20:00,
2013-01-20 23:25:00,30.0,21.7,29.13,NW,315,19.0,26.0,71,0.00,,,0.00,Weather View 32 v70,2013-01-21 04:25:00,
2013-01-20 23:35:00,30.0,21.7,29.13,WNW,292,11.0,26.0,71,0.00,,,0.00,Weather View 32 v70,2013-01-21 04:35:00,
2013-01-20 23:45:00,29.0,20.4,29.13,NW,315,13.0,26.0,70,0.00,,,0.00,Weather View 32 v70,2013-01-21 04:45:00,
2013-01-20 23:50:00,29.0,22.1,29.14,NW,315,14.0,26.0,75,0.00,,,0.00,Weather View 32 v70,2013-01-21 04:50:00,